< < Back
Terminal Aerodrome Forecast


Current Version              Previous Versions:   1  2  3  4  5  6  7  8  9  

Terminal Aerodrome Forecast

754
FTUS42 KGSP 271700
TAFCLT
TAF
KCLT 271726Z 2718/2818 35009KT P6SM FEW250
     FM272300 34003KT P6SM SKC
     FM281300 28003KT P6SM FEW070=



Latest METAR

748
SAUS70 KWBC 280900 RRB
MTRCLT
METAR KCLT 280852Z 00000KT 10SM CLR 18/16 A3001 RMK AO2 SLP154 T01830156
56005


USA.gov is the U.S. government's official web portal to all federal, state and local government web resources and services.